sensor_id;sensor_type;location;lat;lon;timestamp;P1;durP1;ratioP1;P2;durP2;ratioP2
17670;SDS011;8954;48.694;8.940;2023-06-14T06:25:52;0.40;;;0.40;;
17670;SDS011;8954;48.694;8.940;2023-06-14T06:28:18;0.47;;;0.20;;
17670;SDS011;8954;48.694;8.940;2023-06-14T06:30:43;0.17;;;0.17;;
17670;SDS011;8954;48.694;8.940;2023-06-14T06:33:09;0.10;;;0.10;;
17670;SDS011;8954;48.694;8.940;2023-06-14T06:35:35;0.10;;;0.10;;
17670;SDS011;8954;48.694;8.940;2023-06-14T06:38:01;0.10;;;0.10;;
17670;SDS011;8954;48.694;8.940;2023-06-14T06:40:26;0.10;;;0.10;;
17670;SDS011;8954;48.694;8.940;2023-06-14T06:42:52;0.13;;;0.07;;
17670;SDS011;8954;48.694;8.940;2023-06-14T06:45:18;0.10;;;0.00;;
17670;SDS011;8954;48.694;8.940;2023-06-14T06:47:43;0.00;;;0.00;;
17670;SDS011;8954;48.694;8.940;2023-06-14T06:50:09;0.10;;;0.10;;
17670;SDS011;8954;48.694;8.940;2023-06-14T06:52:35;0.00;;;0.00;;
17670;SDS011;8954;48.694;8.940;2023-06-14T06:55:00;0.00;;;0.00;;
17670;SDS011;8954;48.694;8.940;2023-06-14T06:57:27;0.00;;;0.00;;
17670;SDS011;8954;48.694;8.940;2023-06-14T06:59:54;0.00;;;0.00;;
17670;SDS011;8954;48.694;8.940;2023-06-14T07:02:19;0.00;;;0.00;;
17670;SDS011;8954;48.694;8.940;2023-06-14T07:04:45;0.10;;;0.10;;
17670;SDS011;8954;48.694;8.940;2023-06-14T07:07:11;0.10;;;0.10;;
17670;SDS011;8954;48.694;8.940;2023-06-14T07:09:37;0.03;;;0.03;;
17670;SDS011;8954;48.694;8.940;2023-06-14T07:12:02;0.00;;;0.00;;
17670;SDS011;8954;48.694;8.940;2023-06-14T07:14:28;0.10;;;0.10;;
17670;SDS011;8954;48.694;8.940;2023-06-14T07:16:55;0.00;;;0.00;;
17670;SDS011;8954;48.694;8.940;2023-06-14T07:19:20;0.00;;;0.00;;
17670;SDS011;8954;48.694;8.940;2023-06-14T07:21:46;0.00;;;0.00;;
17670;SDS011;8954;48.694;8.940;2023-06-14T07:24:11;0.00;;;0.00;;
17670;SDS011;8954;48.694;8.940;2023-06-14T07:26:39;0.10;;;0.10;;
17670;SDS011;8954;48.694;8.940;2023-06-14T07:29:05;0.00;;;0.00;;
17670;SDS011;8954;48.694;8.940;2023-06-14T07:31:30;0.00;;;0.00;;
17670;SDS011;8954;48.694;8.940;2023-06-14T07:33:56;0.00;;;0.00;;
17670;SDS011;8954;48.694;8.940;2023-06-14T07:36:22;0.00;;;0.00;;
17670;SDS011;8954;48.694;8.940;2023-06-14T07:38:48;0.20;;;0.20;;
17670;SDS011;8954;48.694;8.940;2023-06-14T07:41:13;0.20;;;0.20;;
17670;SDS011;8954;48.694;8.940;2023-06-14T07:43:39;0.00;;;0.00;;
17670;SDS011;8954;48.694;8.940;2023-06-14T07:46:04;0.00;;;0.00;;
17670;SDS011;8954;48.694;8.940;2023-06-14T07:48:30;0.10;;;0.10;;
17670;SDS011;8954;48.694;8.940;2023-06-14T07:50:56;0.10;;;0.10;;
17670;SDS011;8954;48.694;8.940;2023-06-14T07:53:21;0.25;;;0.10;;
17670;SDS011;8954;48.694;8.940;2023-06-14T07:55:47;0.00;;;0.00;;
17670;SDS011;8954;48.694;8.940;2023-06-14T07:58:13;0.00;;;0.00;;
17670;SDS011;8954;48.694;8.940;2023-06-14T08:00:39;0.00;;;0.00;;
17670;SDS011;8954;48.694;8.940;2023-06-14T08:03:04;0.00;;;0.00;;
17670;SDS011;8954;48.694;8.940;2023-06-14T08:05:30;0.10;;;0.10;;
17670;SDS011;8954;48.694;8.940;2023-06-14T08:07:56;0.10;;;0.10;;
17670;SDS011;8954;48.694;8.940;2023-06-14T08:10:22;0.00;;;0.00;;
17670;SDS011;8954;48.694;8.940;2023-06-14T08:12:48;0.00;;;0.00;;
17670;SDS011;8954;48.694;8.940;2023-06-14T08:15:15;0.10;;;0.00;;
17670;SDS011;8954;48.694;8.940;2023-06-14T08:17:42;0.00;;;0.00;;
17670;SDS011;8954;48.694;8.940;2023-06-14T08:20:10;0.00;;;0.00;;
17670;SDS011;8954;48.694;8.940;2023-06-14T08:22:36;0.00;;;0.00;;
17670;SDS011;8954;48.694;8.940;2023-06-14T08:25:03;0.00;;;0.00;;
17670;SDS011;8954;48.694;8.940;2023-06-14T08:27:29;0.00;;;0.00;;
17670;SDS011;8954;48.694;8.940;2023-06-14T08:29:55;0.00;;;0.00;;
17670;SDS011;8954;48.694;8.940;2023-06-14T08:32:22;0.03;;;0.00;;
17670;SDS011;8954;48.694;8.940;2023-06-14T08:34:47;0.00;;;0.00;;
17670;SDS011;8954;48.694;8.940;2023-06-14T08:37:13;0.00;;;0.00;;
17670;SDS011;8954;48.694;8.940;2023-06-14T08:39:39;0.00;;;0.00;;
17670;SDS011;8954;48.694;8.940;2023-06-14T08:42:04;0.00;;;0.00;;
17670;SDS011;8954;48.694;8.940;2023-06-14T08:44:32;0.00;;;0.00;;
17670;SDS011;8954;48.694;8.940;2023-06-14T08:46:59;0.00;;;0.00;;
17670;SDS011;8954;48.694;8.940;2023-06-14T08:49:25;0.20;;;0.00;;
17670;SDS011;8954;48.694;8.940;2023-06-14T08:51:57;0.00;;;0.00;;
17670;SDS011;8954;48.694;8.940;2023-06-14T08:54:23;0.00;;;0.00;;
17670;SDS011;8954;48.694;8.940;2023-06-14T08:56:52;0.00;;;0.00;;
17670;SDS011;8954;48.694;8.940;2023-06-14T08:59:22;0.00;;;0.00;;
17670;SDS011;8954;48.694;8.940;2023-06-14T09:01:50;0.08;;;0.00;;
17670;SDS011;8954;48.694;8.940;2023-06-14T09:04:17;0.00;;;0.00;;
17670;SDS011;8954;48.694;8.940;2023-06-14T09:06:44;0.00;;;0.00;;
17670;SDS011;8954;48.694;8.940;2023-06-14T09:09:10;0.00;;;0.00;;
17670;SDS011;8954;48.694;8.940;2023-06-14T09:11:37;0.00;;;0.00;;
17670;SDS011;8954;48.694;8.940;2023-06-14T09:14:02;0.00;;;0.00;;
17670;SDS011;8954;48.694;8.940;2023-06-14T09:16:28;0.00;;;0.00;;
17670;SDS011;8954;48.694;8.940;2023-06-14T09:18:54;0.00;;;0.00;;
17670;SDS011;8954;48.694;8.940;2023-06-14T09:21:19;0.00;;;0.00;;
17670;SDS011;8954;48.694;8.940;2023-06-14T09:23:47;0.00;;;0.00;;
17670;SDS011;8954;48.694;8.940;2023-06-14T09:26:13;0.00;;;0.00;;
17670;SDS011;8954;48.694;8.940;2023-06-14T09:28:41;0.00;;;0.00;;
17670;SDS011;8954;48.694;8.940;2023-06-14T09:31:08;0.00;;;0.00;;
17670;SDS011;8954;48.694;8.940;2023-06-14T09:33:35;0.00;;;0.00;;
17670;SDS011;8954;48.694;8.940;2023-06-14T09:36:01;0.00;;;0.00;;
17670;SDS011;8954;48.694;8.940;2023-06-14T09:38:26;0.10;;;0.00;;
17670;SDS011;8954;48.694;8.940;2023-06-14T09:40:52;0.00;;;0.00;;
17670;SDS011;8954;48.694;8.940;2023-06-14T09:43:17;0.00;;;0.00;;
17670;SDS011;8954;48.694;8.940;2023-06-14T09:45:46;0.00;;;0.00;;
17670;SDS011;8954;48.694;8.940;2023-06-14T09:48:13;0.00;;;0.00;;
17670;SDS011;8954;48.694;8.940;2023-06-14T09:50:42;0.00;;;0.00;;
17670;SDS011;8954;48.694;8.940;2023-06-14T09:53:13;0.00;;;0.00;;
17670;SDS011;8954;48.694;8.940;2023-06-14T09:55:40;0.00;;;0.00;;
17670;SDS011;8954;48.694;8.940;2023-06-14T09:58:07;0.00;;;0.00;;
17670;SDS011;8954;48.694;8.940;2023-06-14T10:00:34;0.00;;;0.00;;
17670;SDS011;8954;48.694;8.940;2023-06-14T10:03:25;0.00;;;0.00;;
17670;SDS011;8954;48.694;8.940;2023-06-14T10:05:53;0.00;;;0.00;;
17670;SDS011;8954;48.694;8.940;2023-06-14T10:08:23;0.00;;;0.00;;
17670;SDS011;8954;48.694;8.940;2023-06-14T10:10:52;0.00;;;0.00;;
17670;SDS011;8954;48.694;8.940;2023-06-14T10:13:20;0.00;;;0.00;;
17670;SDS011;8954;48.694;8.940;2023-06-14T10:21:16;0.00;;;0.00;;
17670;SDS011;8954;48.694;8.940;2023-06-14T10:23:51;0.00;;;0.00;;
17670;SDS011;8954;48.694;8.940;2023-06-14T10:26:17;0.00;;;0.00;;
17670;SDS011;8954;48.694;8.940;2023-06-14T10:31:24;0.00;;;0.00;;
17670;SDS011;8954;48.694;8.940;2023-06-14T10:34:08;0.00;;;0.00;;
17670;SDS011;8954;48.694;8.940;2023-06-14T10:36:34;0.00;;;0.00;;
17670;SDS011;8954;48.694;8.940;2023-06-14T10:39:01;0.00;;;0.00;;
17670;SDS011;8954;48.694;8.940;2023-06-14T10:41:52;0.00;;;0.00;;
17670;SDS011;8954;48.694;8.940;2023-06-14T10:46:53;0.00;;;0.00;;
17670;SDS011;8954;48.694;8.940;2023-06-14T10:49:20;0.00;;;0.00;;
17670;SDS011;8954;48.694;8.940;2023-06-14T10:52:10;0.00;;;0.00;;
17670;SDS011;8954;48.694;8.940;2023-06-14T10:57:29;0.00;;;0.00;;
17670;SDS011;8954;48.694;8.940;2023-06-14T10:59:56;0.00;;;0.00;;
17670;SDS011;8954;48.694;8.940;2023-06-14T11:05:27;0.00;;;0.00;;
17670;SDS011;8954;48.694;8.940;2023-06-14T11:10:46;0.00;;;0.00;;
17670;SDS011;8954;48.694;8.940;2023-06-14T11:13:12;0.00;;;0.00;;
17670;SDS011;8954;48.694;8.940;2023-06-14T11:15:43;0.00;;;0.00;;
17670;SDS011;8954;48.694;8.940;2023-06-14T11:18:10;0.00;;;0.00;;
17670;SDS011;8954;48.694;8.940;2023-06-14T11:20:39;0.00;;;0.00;;
17670;SDS011;8954;48.694;8.940;2023-06-14T11:23:05;0.00;;;0.00;;
17670;SDS011;8954;48.694;8.940;2023-06-14T11:25:30;0.00;;;0.00;;
17670;SDS011;8954;48.694;8.940;2023-06-14T11:27:56;0.00;;;0.00;;
17670;SDS011;8954;48.694;8.940;2023-06-14T11:30:22;0.00;;;0.00;;
17670;SDS011;8954;48.694;8.940;2023-06-14T11:32:49;0.00;;;0.00;;
17670;SDS011;8954;48.694;8.940;2023-06-14T11:35:17;0.00;;;0.00;;
17670;SDS011;8954;48.694;8.940;2023-06-14T11:37:43;0.00;;;0.00;;
17670;SDS011;8954;48.694;8.940;2023-06-14T11:40:09;0.00;;;0.00;;
17670;SDS011;8954;48.694;8.940;2023-06-14T11:42:37;0.00;;;0.00;;
17670;SDS011;8954;48.694;8.940;2023-06-14T11:45:10;0.00;;;0.00;;
17670;SDS011;8954;48.694;8.940;2023-06-14T11:47:37;0.00;;;0.00;;
17670;SDS011;8954;48.694;8.940;2023-06-14T11:50:06;0.00;;;0.00;;
17670;SDS011;8954;48.694;8.940;2023-06-14T11:52:33;0.00;;;0.00;;
17670;SDS011;8954;48.694;8.940;2023-06-14T11:54:59;0.00;;;0.00;;
17670;SDS011;8954;48.694;8.940;2023-06-14T11:57:25;0.00;;;0.00;;
17670;SDS011;8954;48.694;8.940;2023-06-14T11:59:50;0.00;;;0.00;;
17670;SDS011;8954;48.694;8.940;2023-06-14T12:02:17;0.00;;;0.00;;
17670;SDS011;8954;48.694;8.940;2023-06-14T12:04:44;0.00;;;0.00;;
17670;SDS011;8954;48.694;8.940;2023-06-14T12:07:13;0.00;;;0.00;;
17670;SDS011;8954;48.694;8.940;2023-06-14T12:12:24;0.00;;;0.00;;
17670;SDS011;8954;48.694;8.940;2023-06-14T12:14:51;0.00;;;0.00;;
17670;SDS011;8954;48.694;8.940;2023-06-14T12:17:17;0.00;;;0.00;;
17670;SDS011;8954;48.694;8.940;2023-06-14T12:19:44;0.00;;;0.00;;
17670;SDS011;8954;48.694;8.940;2023-06-14T12:22:11;0.00;;;0.00;;
17670;SDS011;8954;48.694;8.940;2023-06-14T12:24:38;0.00;;;0.00;;
17670;SDS011;8954;48.694;8.940;2023-06-14T12:27:04;0.00;;;0.00;;
17670;SDS011;8954;48.694;8.940;2023-06-14T12:29:30;0.00;;;0.00;;
17670;SDS011;8954;48.694;8.940;2023-06-14T12:31:56;0.00;;;0.00;;
17670;SDS011;8954;48.694;8.940;2023-06-14T12:34:23;0.00;;;0.00;;
17670;SDS011;8954;48.694;8.940;2023-06-14T12:36:52;0.00;;;0.00;;
17670;SDS011;8954;48.694;8.940;2023-06-14T12:39:22;0.00;;;0.00;;
17670;SDS011;8954;48.694;8.940;2023-06-14T12:41:48;0.00;;;0.00;;
17670;SDS011;8954;48.694;8.940;2023-06-14T12:44:14;0.00;;;0.00;;
17670;SDS011;8954;48.694;8.940;2023-06-14T12:46:40;0.00;;;0.00;;
17670;SDS011;8954;48.694;8.940;2023-06-14T12:49:08;0.00;;;0.00;;
17670;SDS011;8954;48.694;8.940;2023-06-14T12:51:37;0.00;;;0.00;;
17670;SDS011;8954;48.694;8.940;2023-06-14T12:54:03;0.00;;;0.00;;
17670;SDS011;8954;48.694;8.940;2023-06-14T12:56:30;0.00;;;0.00;;
17670;SDS011;8954;48.694;8.940;2023-06-14T12:58:55;0.00;;;0.00;;
17670;SDS011;8954;48.694;8.940;2023-06-14T13:01:21;0.00;;;0.00;;
17670;SDS011;8954;48.694;8.940;2023-06-14T13:03:47;0.00;;;0.00;;
17670;SDS011;8954;48.694;8.940;2023-06-14T13:06:13;0.00;;;0.00;;
17670;SDS011;8954;48.694;8.940;2023-06-14T13:08:39;0.00;;;0.00;;
17670;SDS011;8954;48.694;8.940;2023-06-14T13:11:04;0.00;;;0.00;;
17670;SDS011;8954;48.694;8.940;2023-06-14T13:13:30;0.00;;;0.00;;
17670;SDS011;8954;48.694;8.940;2023-06-14T13:15:55;0.00;;;0.00;;
17670;SDS011;8954;48.694;8.940;2023-06-14T13:18:21;0.00;;;0.00;;
17670;SDS011;8954;48.694;8.940;2023-06-14T13:20:46;0.00;;;0.00;;
17670;SDS011;8954;48.694;8.940;2023-06-14T13:23:12;0.00;;;0.00;;
17670;SDS011;8954;48.694;8.940;2023-06-14T13:25:38;0.00;;;0.00;;
17670;SDS011;8954;48.694;8.940;2023-06-14T13:28:05;0.00;;;0.00;;
17670;SDS011;8954;48.694;8.940;2023-06-14T13:30:31;0.00;;;0.00;;
17670;SDS011;8954;48.694;8.940;2023-06-14T13:32:57;0.00;;;0.00;;
17670;SDS011;8954;48.694;8.940;2023-06-14T13:35:23;0.00;;;0.00;;
17670;SDS011;8954;48.694;8.940;2023-06-14T13:37:49;0.00;;;0.00;;
17670;SDS011;8954;48.694;8.940;2023-06-14T13:40:15;0.00;;;0.00;;
17670;SDS011;8954;48.694;8.940;2023-06-14T13:42:41;0.00;;;0.00;;
17670;SDS011;8954;48.694;8.940;2023-06-14T13:45:07;0.00;;;0.00;;
17670;SDS011;8954;48.694;8.940;2023-06-14T13:47:33;0.00;;;0.00;;
17670;SDS011;8954;48.694;8.940;2023-06-14T13:49:59;0.00;;;0.00;;
17670;SDS011;8954;48.694;8.940;2023-06-14T13:52:25;0.00;;;0.00;;
17670;SDS011;8954;48.694;8.940;2023-06-14T13:54:51;0.00;;;0.00;;
17670;SDS011;8954;48.694;8.940;2023-06-14T13:57:17;0.00;;;0.00;;
17670;SDS011;8954;48.694;8.940;2023-06-14T13:59:43;0.00;;;0.00;;
17670;SDS011;8954;48.694;8.940;2023-06-14T14:02:10;0.00;;;0.00;;
17670;SDS011;8954;48.694;8.940;2023-06-14T14:04:39;0.00;;;0.00;;
17670;SDS011;8954;48.694;8.940;2023-06-14T14:07:05;0.00;;;0.00;;
17670;SDS011;8954;48.694;8.940;2023-06-14T14:09:32;0.00;;;0.00;;
17670;SDS011;8954;48.694;8.940;2023-06-14T14:12:02;0.00;;;0.00;;
17670;SDS011;8954;48.694;8.940;2023-06-14T14:14:28;0.00;;;0.00;;
17670;SDS011;8954;48.694;8.940;2023-06-14T14:16:55;0.00;;;0.00;;
17670;SDS011;8954;48.694;8.940;2023-06-14T14:19:21;0.00;;;0.00;;
17670;SDS011;8954;48.694;8.940;2023-06-14T14:21:47;0.00;;;0.00;;
17670;SDS011;8954;48.694;8.940;2023-06-14T14:24:13;0.00;;;0.00;;
17670;SDS011;8954;48.694;8.940;2023-06-14T14:26:39;0.00;;;0.00;;
17670;SDS011;8954;48.694;8.940;2023-06-14T14:29:05;0.00;;;0.00;;
17670;SDS011;8954;48.694;8.940;2023-06-14T14:31:31;0.00;;;0.00;;
17670;SDS011;8954;48.694;8.940;2023-06-14T14:33:57;0.00;;;0.00;;
17670;SDS011;8954;48.694;8.940;2023-06-14T14:36:22;0.00;;;0.00;;
17670;SDS011;8954;48.694;8.940;2023-06-14T14:38:48;0.00;;;0.00;;
17670;SDS011;8954;48.694;8.940;2023-06-14T14:41:14;0.00;;;0.00;;
17670;SDS011;8954;48.694;8.940;2023-06-14T14:43:39;0.00;;;0.00;;
17670;SDS011;8954;48.694;8.940;2023-06-14T14:46:05;0.00;;;0.00;;
17670;SDS011;8954;48.694;8.940;2023-06-14T14:48:31;0.00;;;0.00;;
17670;SDS011;8954;48.694;8.940;2023-06-14T14:50:57;0.00;;;0.00;;
17670;SDS011;8954;48.694;8.940;2023-06-14T14:53:22;0.00;;;0.00;;
17670;SDS011;8954;48.694;8.940;2023-06-14T14:55:48;0.00;;;0.00;;
17670;SDS011;8954;48.694;8.940;2023-06-14T14:58:14;0.00;;;0.00;;
17670;SDS011;8954;48.694;8.940;2023-06-14T15:00:46;0.00;;;0.00;;
17670;SDS011;8954;48.694;8.940;2023-06-14T15:03:12;0.00;;;0.00;;
17670;SDS011;8954;48.694;8.940;2023-06-14T15:05:37;0.00;;;0.00;;
17670;SDS011;8954;48.694;8.940;2023-06-14T15:08:03;0.00;;;0.00;;
17670;SDS011;8954;48.694;8.940;2023-06-14T15:10:35;0.00;;;0.00;;
17670;SDS011;8954;48.694;8.940;2023-06-14T15:13:01;0.00;;;0.00;;
17670;SDS011;8954;48.694;8.940;2023-06-14T15:15:26;0.00;;;0.00;;
17670;SDS011;8954;48.694;8.940;2023-06-14T15:17:52;0.00;;;0.00;;
17670;SDS011;8954;48.694;8.940;2023-06-14T15:20:17;0.00;;;0.00;;
17670;SDS011;8954;48.694;8.940;2023-06-14T15:22:43;0.00;;;0.00;;
17670;SDS011;8954;48.694;8.940;2023-06-14T15:25:08;0.00;;;0.00;;
17670;SDS011;8954;48.694;8.940;2023-06-14T15:27:34;0.00;;;0.00;;
17670;SDS011;8954;48.694;8.940;2023-06-14T15:30:00;0.00;;;0.00;;
17670;SDS011;8954;48.694;8.940;2023-06-14T15:32:26;0.00;;;0.00;;
17670;SDS011;8954;48.694;8.940;2023-06-14T15:34:52;0.00;;;0.00;;
